Time;durP1;ratioP1;P1;durP2;ratioP2;P2;SDS_P1;SDS_P2;PMS_P1;PMS_P2;Temp;Humidity;BMP_temperature;BMP_pressure;BME280_temperature;BME280_humidity;BME280_pressure;Samples;Min_cycle;Max_cycle;Signal;HPM_P1;HPM_P2
2023/09/21 00:00:59;;;;;;;;;3.00;3.00;;;;;20.81;61.62;99282.25;5078423;27;45360;-83
2023/09/21 00:03:26;;;;;;;;;3.67;3.33;;;;;21.13;61.78;99328.91;5066204;28;45583;-82
2023/09/21 00:05:52;;;;;;;;;3.33;3.33;;;;;21.02;61.93;99315.84;5076805;28;47057;-83
2023/09/21 00:08:17;;;;;;;;;4.33;2.67;;;;;21.04;62.09;99314.63;5078976;27;45499;-82
2023/09/21 00:10:43;;;;;;;;;5.00;4.67;;;;;21.12;61.84;99328.06;5078366;28;45423;-81
2023/09/21 00:13:09;;;;;;;;;3.33;3.33;;;;;21.04;62.17;99322.75;5078135;27;45686;-79
2023/09/21 00:15:35;;;;;;;;;4.00;4.00;;;;;21.10;62.39;99326.59;5079601;27;45360;-80
2023/09/21 00:18:00;;;;;;;;;4.00;4.00;;;;;21.10;62.59;99337.41;5080206;27;45492;-80
2023/09/21 00:20:30;;;;;;;;;3.67;3.67;;;;;21.10;62.60;99338.25;5083502;27;45302;-80
2023/09/21 00:22:56;;;;;;;;;5.00;2.75;;;;;21.04;62.61;99325.44;5085907;27;45168;-80
2023/09/21 00:25:23;;;;;;;;;3.67;3.67;;;;;21.08;62.92;99334.84;5084927;27;46017;-82
2023/09/21 00:27:48;;;;;;;;;4.00;4.00;;;;;21.07;63.32;99330.47;5083994;27;45333;-84
2023/09/21 00:30:15;;;;;;;;;3.67;3.67;;;;;20.95;64.03;99315.72;5084805;27;45314;-79
2023/09/21 00:32:41;;;;;;;;;3.00;3.00;;;;;20.92;64.76;99308.81;5078763;27;45433;-82
2023/09/21 00:35:10;;;;;;;;;3.67;1.67;;;;;20.91;64.77;99309.00;5064762;28;45354;-82
2023/09/21 00:37:39;;;;;;;;;3.00;3.00;;;;;20.80;65.11;99314.84;5075958;28;45306;-84
2023/09/21 00:40:20;;;;;;;;;7.33;3.33;;;;;20.86;65.71;99327.66;5103519;27;45340;-83
2023/09/21 00:42:46;;;;;;;;;3.00;3.00;;;;;20.73;66.50;99289.59;5085441;27;45241;-81
2023/09/21 00:45:13;;;;;;;;;3.33;3.33;;;;;20.67;67.13;99279.50;5076844;27;45688;-81
2023/09/21 00:47:41;;;;;;;;;4.00;3.33;;;;;20.78;67.00;99298.00;5060745;28;45296;-81
2023/09/21 00:50:11;;;;;;;;;4.00;4.00;;;;;20.75;66.91;99317.28;5059383;28;45395;-81
2023/09/21 00:52:45;;;;;;;;;2.33;2.33;;;;;20.72;66.96;99317.66;5061297;28;45231;-81
2023/09/21 00:55:13;;;;;;;;;5.67;3.67;;;;;20.69;67.30;99320.69;5075671;28;45456;-82
2023/09/21 00:57:40;;;;;;;;;2.67;2.67;;;;;20.64;67.51;99320.41;5081073;27;45340;-81
2023/09/21 01:00:13;;;;;;;;;3.00;3.00;;;;;20.55;67.49;99315.06;5081169;27;45350;-81
2023/09/21 01:02:42;;;;;;;;;4.00;3.00;;;;;20.57;67.86;99323.84;5081517;27;45393;-82
2023/09/21 01:05:08;;;;;;;;;2.67;2.67;;;;;20.41;67.75;99290.66;5080866;27;45372;-79
2023/09/21 01:07:36;;;;;;;;;5.00;4.00;;;;;20.46;68.15;99299.97;5080348;27;45171;-79
2023/09/21 01:10:03;;;;;;;;;3.33;3.33;;;;;20.36;69.84;99264.22;5080159;27;45172;-80
2023/09/21 01:12:28;;;;;;;;;4.00;2.00;;;;;20.47;69.96;99298.94;5079943;28;45468;-80
2023/09/21 01:15:11;;;;;;;;;3.00;3.00;;;;;20.40;70.18;99306.03;5081987;28;47356;-84
2023/09/21 01:17:41;;;;;;;;;4.00;2.00;;;;;20.29;70.41;99292.94;5083541;27;45188;-84
2023/09/21 01:20:19;;;;;;;;;3.33;3.00;;;;;20.23;70.45;99285.59;5082937;28;45302;-83
2023/09/21 01:23:04;;;;;;;;;4.33;2.67;;;;;20.10;70.75;99271.84;5081745;27;45258;-84
2023/09/21 01:25:29;;;;;;;;;2.50;2.50;;;;;20.27;70.77;99308.50;5082631;27;45180;-87
2023/09/21 01:27:55;;;;;;;;;3.33;3.33;;;;;20.23;71.33;99299.06;5081957;27;45283;-80
2023/09/21 01:30:20;;;;;;;;;1.00;1.00;;;;;20.22;71.21;99300.94;5066281;27;45420;-79
2023/09/21 01:32:48;;;;;;;;;3.00;3.00;;;;;20.11;71.94;99289.72;5059569;28;45318;-81
2023/09/21 01:35:14;;;;;;;;;3.75;3.75;;;;;19.97;72.59;99273.25;5060603;28;46456;-80
2023/09/21 01:37:40;;;;;;;;;5.67;4.00;;;;;20.02;74.12;99281.66;5076545;28;45478;-81
2023/09/21 01:40:15;;;;;;;;;2.67;2.00;;;;;19.81;75.70;99267.97;5099387;27;45392;-80
2023/09/21 01:42:40;;;;;;;;;4.67;3.00;;;;;19.81;76.11;99296.81;5082028;27;45312;-80
2023/09/21 01:45:13;;;;;;;;;3.00;2.33;;;;;19.70;77.38;99292.63;5084363;28;56917;-79
2023/09/21 01:47:39;;;;;;;;;3.33;3.33;;;;;19.64;77.52;99288.78;5088905;27;45361;-81
2023/09/21 01:50:06;;;;;;;;;4.67;4.00;;;;;19.61;77.95;99293.69;5088782;27;45373;-80
2023/09/21 01:52:31;;;;;;;;;4.33;4.00;;;;;19.54;80.09;99290.00;5106690;27;45433;-80
2023/09/21 01:55:05;;;;;;;;;3.00;3.00;;;;;19.42;79.89;99290.38;5085894;28;47048;-81
2023/09/21 01:57:31;;;;;;;;;3.67;3.67;;;;;19.20;80.05;99264.16;5085437;28;45415;-80
2023/09/21 01:59:56;;;;;;;;;6.00;5.00;;;;;19.22;82.08;99261.28;5082825;28;45422;-84
2023/09/21 02:02:23;;;;;;;;;4.00;4.00;;;;;19.23;82.58;99269.19;5066780;28;44930;-80
2023/09/21 02:04:48;;;;;;;;;3.00;3.00;;;;;19.16;82.58;99265.53;5078584;28;45946;-81
2023/09/21 02:07:14;;;;;;;;;4.00;3.00;;;;;19.05;82.69;99252.41;5080935;27;45175;-82
2023/09/21 02:09:40;;;;;;;;;2.00;2.00;;;;;19.02;83.40;99252.78;5095405;27;45366;-79
2023/09/21 02:12:05;;;;;;;;;3.00;3.00;;;;;19.05;83.56;99239.78;5071911;28;45549;-81
2023/09/21 02:14:31;;;;;;;;;4.00;3.00;;;;;18.90;84.51;99240.69;5061414;28;45274;-81
2023/09/21 02:16:56;;;;;;;;;3.33;3.33;;;;;18.78;84.81;99214.09;5062184;28;48693;-81
2023/09/21 02:19:21;;;;;;;;;4.00;4.00;;;;;18.86;85.05;99221.28;5060392;28;47712;-82
2023/09/21 02:21:47;;;;;;;;;4.33;4.33;;;;;18.90;84.80;99221.81;5087661;27;45318;-81
2023/09/21 02:24:12;;;;;;;;;4.33;3.00;;;;;18.87;84.96;99214.91;5084926;27;45419;-83
2023/09/21 02:26:38;;;;;;;;;4.00;4.00;;;;;18.93;85.32;99229.53;5085161;27;45333;-80
2023/09/21 02:29:04;;;;;;;;;4.33;3.00;;;;;18.86;85.74;99219.44;5083579;27;44894;-84
2023/09/21 02:31:31;;;;;;;;;4.33;4.33;;;;;18.65;86.32;99177.94;5078754;28;45478;-82
2023/09/21 02:33:56;;;;;;;;;3.00;3.00;;;;;18.49;86.36;99168.84;5069483;28;45410;-81
2023/09/21 02:36:21;;;;;;;;;4.33;4.33;;;;;18.81;86.88;99215.59;5086668;27;45329;-82
2023/09/21 02:38:46;;;;;;;;;1.00;1.00;;;;;18.75;87.20;99197.41;5085975;28;50798;-79
2023/09/21 02:41:12;;;;;;;;;5.00;5.00;;;;;18.68;87.31;99186.50;5083523;28;53140;-82
2023/09/21 02:43:40;;;;;;;;;4.33;3.33;;;;;18.71;87.60;99196.94;5081751;28;58207;-82
2023/09/21 02:46:06;;;;;;;;;4.00;4.00;;;;;18.46;87.58;99147.63;5083086;28;45394;-81
2023/09/21 02:48:31;;;;;;;;;3.33;3.33;;;;;18.71;87.61;99194.22;5083409;27;45432;-80
2023/09/21 02:50:58;;;;;;;;;3.00;3.00;;;;;18.65;88.61;99176.09;5064297;27;45258;-80
2023/09/21 02:53:23;;;;;;;;;4.00;3.00;;;;;18.67;88.75;99182.13;5061347;28;47322;-83
2023/09/21 02:55:51;;;;;;;;;4.00;4.00;;;;;18.54;89.02;99162.94;5061183;28;45302;-79
2023/09/21 02:58:19;;;;;;;;;3.00;3.00;;;;;18.30;89.13;99126.16;5061953;28;45333;-81
2023/09/21 03:00:45;;;;;;;;;4.00;4.00;;;;;18.57;90.18;99160.75;5060991;28;45521;-81
2023/09/21 03:03:15;;;;;;;;;2.67;1.00;;;;;18.50;89.21;99154.38;5059779;28;47219;-80
2023/09/21 03:05:42;;;;;;;;;3.33;3.33;;;;;18.54;89.85;99160.25;5061347;28;45459;-84
2023/09/21 03:08:14;;;;;;;;;3.00;3.00;;;;;18.55;89.78;99164.63;5071964;28;45472;-80
2023/09/21 03:10:45;;;;;;;;;5.67;3.00;;;;;18.61;89.37;99172.00;5069447;28;45318;-78
2023/09/21 03:13:20;;;;;;;;;3.33;3.33;;;;;18.37;89.82;99129.00;5077987;28;46705;-81
2023/09/21 03:15:50;;;;;;;;;2.33;2.33;;;;;18.46;89.73;99141.41;5075318;27;45511;-81
2023/09/21 03:18:18;;;;;;;;;2.00;2.00;;;;;18.51;89.67;99144.47;5078013;28;45378;-81
2023/09/21 03:20:44;;;;;;;;;2.33;2.33;;;;;18.54;89.45;99146.78;5077041;28;45326;-83
2023/09/21 03:23:10;;;;;;;;;2.33;2.33;;;;;18.73;89.36;99165.28;5071853;27;45320;-81
2023/09/21 03:25:40;;;;;;;;;1.33;1.33;;;;;18.73;88.94;99172.50;5062388;28;45212;-81
2023/09/21 03:28:10;;;;;;;;;1.33;1.00;;;;;18.70;88.62;99165.63;5077349;27;45348;-82
2023/09/21 03:30:45;;;;;;;;;2.67;2.67;;;;;18.67;88.78;99149.81;5063071;27;45223;-81
2023/09/21 03:33:12;;;;;;;;;2.00;2.00;;;;;18.73;88.49;99159.06;5059814;27;45250;-81
2023/09/21 03:35:38;;;;;;;;;1.33;1.33;;;;;18.72;89.23;99162.75;5057546;28;45298;-81
2023/09/21 03:38:06;;;;;;;;;4.00;2.00;;;;;18.80;89.35;99166.28;5059349;28;45373;-80
2023/09/21 03:40:34;;;;;;;;;3.00;1.33;;;;;18.81;88.99;99159.88;5058168;28;45572;-81
2023/09/21 03:42:59;;;;;;;;;2.00;2.00;;;;;18.66;88.80;99136.53;5055151;28;46621;-80
2023/09/21 03:45:25;;;;;;;;;2.33;2.00;;;;;18.84;89.08;99173.00;5076802;28;45336;-81
2023/09/21 03:47:54;;;;;;;;;1.33;1.00;;;;;18.65;89.02;99130.31;5077058;27;45282;-80
2023/09/21 03:50:20;;;;;;;;;1.00;1.00;;;;;18.73;88.80;99132.13;5076116;27;45418;-80
2023/09/21 03:52:47;;;;;;;;;2.00;2.00;;;;;18.79;88.36;99145.75;5075513;28;46791;-81
2023/09/21 03:55:16;;;;;;;;;1.67;1.67;;;;;18.87;88.71;99155.63;5056779;27;45405;-85
2023/09/21 03:57:48;;;;;;;;;1.00;1.00;;;;;18.93;88.57;99156.81;5056706;28;45184;-81
2023/09/21 04:00:29;;;;;;;;;1.33;1.33;;;;;18.90;88.28;99158.00;5055437;28;45244;-84
2023/09/21 04:02:59;;;;;;;;;4.00;1.00;;;;;18.98;88.17;99159.81;5056635;28;45422;-82
2023/09/21 04:05:26;;;;;;;;;1.67;1.00;;;;;18.99;87.83;99159.63;5057940;28;45386;-82
2023/09/21 04:07:52;;;;;;;;;3.00;1.33;;;;;18.90;87.26;99132.91;5060602;28;45328;-81
2023/09/21 04:10:17;;;;;;;;;1.00;1.00;;;;;18.53;88.23;99084.03;5061141;28;45479;-81
2023/09/21 04:12:45;;;;;;;;;3.00;2.00;;;;;18.83;87.91;99138.16;5079064;28;46282;-81
2023/09/21 04:15:11;;;;;;;;;3.00;1.00;;;;;18.68;87.95;99107.56;5080864;27;45506;-81
2023/09/21 04:17:40;;;;;;;;;1.00;1.00;;;;;18.89;87.84;99152.78;5081371;27;45816;-80
2023/09/21 04:20:12;;;;;;;;;1.00;1.00;;;;;18.58;88.23;99107.75;5081601;28;45585;-81
2023/09/21 04:22:43;;;;;;;;;2.33;1.00;;;;;18.80;88.10;99136.66;5078986;27;45776;-81
2023/09/21 04:25:14;;;;;;;;;2.00;1.00;;;;;18.83;88.24;99144.38;5060726;28;45410;-82
2023/09/21 04:27:42;;;;;;;;;1.00;1.00;;;;;18.64;88.00;99108.94;5059264;28;45487;-82
2023/09/21 04:30:14;;;;;;;;;1.33;1.33;;;;;18.82;89.50;99137.31;5060652;28;45568;-84
2023/09/21 04:32:46;;;;;;;;;1.67;1.67;;;;;18.81;88.89;99143.72;5058805;28;46422;-81
2023/09/21 04:35:13;;;;;;;;;3.00;2.00;;;;;18.78;88.58;99125.22;5059946;28;45431;-82
2023/09/21 04:37:38;;;;;;;;;2.00;2.00;;;;;18.57;88.91;99096.13;5060599;28;45255;-81
2023/09/21 04:40:09;;;;;;;;;3.67;2.00;;;;;18.54;89.27;99090.25;5075184;28;45542;-81
2023/09/21 04:42:35;;;;;;;;;3.00;3.00;;;;;18.31;88.88;99070.47;5080451;27;45339;-81
2023/09/21 04:45:01;;;;;;;;;1.00;1.00;;;;;18.58;89.41;99108.56;5080436;27;45458;-82
2023/09/21 04:47:27;;;;;;;;;2.00;2.00;;;;;18.74;89.14;99123.88;5079038;28;45534;-83
2023/09/21 04:49:54;;;;;;;;;1.00;1.00;;;;;18.77;88.39;99117.31;5066535;27;45333;-84
2023/09/21 04:52:21;;;;;;;;;2.33;2.33;;;;;18.69;88.99;99109.25;5061014;28;45934;-86
2023/09/21 04:54:50;;;;;;;;;2.33;1.00;;;;;18.61;89.26;99080.47;5062663;28;45221;-81
2023/09/21 04:57:18;;;;;;;;;3.00;2.00;;;;;18.60;89.05;99086.84;5062353;28;45450;-82
2023/09/21 04:59:43;;;;;;;;;2.00;2.00;;;;;18.68;88.94;99091.41;5061050;28;45286;-82
2023/09/21 05:02:09;;;;;;;;;4.00;2.33;;;;;18.66;89.17;99094.28;5077026;28;46490;-83
2023/09/21 05:04:35;;;;;;;;;2.00;2.00;;;;;18.54;89.61;99074.94;5081049;27;45265;-83
2023/09/21 05:07:00;;;;;;;;;2.00;2.00;;;;;18.58;89.48;99072.72;5079358;28;45541;-86
2023/09/21 05:09:26;;;;;;;;;2.00;2.00;;;;;18.38;89.08;99049.94;5061670;28;45684;-83
2023/09/21 05:11:53;;;;;;;;;4.00;2.33;;;;;18.54;90.02;99088.41;5060036;28;45455;-79
2023/09/21 05:14:20;;;;;;;;;3.00;3.00;;;;;18.50;89.95;99078.16;5061430;28;45387;-83
2023/09/21 05:16:46;;;;;;;;;3.00;3.00;;;;;18.44;90.60;99068.06;5060383;28;45247;-81
2023/09/21 05:19:13;;;;;;;;;3.00;2.67;;;;;18.50;90.71;99078.16;5059932;28;45381;-87
2023/09/21 05:21:38;;;;;;;;;3.00;3.00;;;;;18.24;90.71;99060.41;5073448;28;45539;-83
2023/09/21 05:24:04;;;;;;;;;5.00;4.00;;;;;18.48;91.05;99080.16;5080117;28;45288;-83
2023/09/21 05:26:29;;;;;;;;;4.33;4.33;;;;;18.21;90.60;99039.19;5080195;27;45412;-83
2023/09/21 05:28:54;;;;;;;;;2.00;2.00;;;;;18.48;90.09;99090.94;5075076;28;45302;-86
2023/09/21 05:31:20;;;;;;;;;3.00;2.00;;;;;18.49;90.41;99087.22;5080810;27;46174;-82
2023/09/21 05:33:45;;;;;;;;;4.00;4.00;;;;;18.33;90.53;99061.19;5079704;27;45273;-82
2023/09/21 05:36:11;;;;;;;;;7.67;5.00;;;;;18.36;90.05;99074.34;5073143;28;52376;-81
2023/09/21 05:38:37;;;;;;;;;0.33;0.33;;;;;18.37;89.91;99076.03;5075151;27;45259;-82
2023/09/21 05:41:03;;;;;;;;;3.00;3.00;;;;;18.46;90.04;99101.03;5071792;28;46042;-86
2023/09/21 05:43:29;;;;;;;;;4.00;3.00;;;;;18.43;90.36;99099.53;5078933;27;45195;-84
2023/09/21 05:45:54;;;;;;;;;6.00;4.67;;;;;18.26;90.63;99074.53;5065052;28;45279;-82
2023/09/21 05:48:20;;;;;;;;;2.67;2.67;;;;;18.32;90.72;99080.22;5058635;28;45410;-82
2023/09/21 05:50:45;;;;;;;;;3.00;3.00;;;;;18.23;91.00;99074.88;5059025;28;45410;-82
2023/09/21 05:53:11;;;;;;;;;3.67;3.67;;;;;18.38;90.18;99101.09;5058289;28;45454;-83
2023/09/21 05:55:37;;;;;;;;;4.33;3.00;;;;;18.25;89.90;99091.69;5058893;28;45460;-79
2023/09/21 05:58:04;;;;;;;;;4.00;4.00;;;;;18.36;89.96;99108.47;5070586;28;45474;-83
2023/09/21 06:00:30;;;;;;;;;7.00;5.00;;;;;18.37;89.99;99104.78;5082769;27;45275;-80
2023/09/21 06:02:55;;;;;;;;;3.33;3.33;;;;;18.26;90.37;99087.16;5090379;27;45209;-81
2023/09/21 06:05:20;;;;;;;;;3.67;3.67;;;;;18.40;90.56;99115.19;5086910;28;69250;-80
2023/09/21 06:07:46;;;;;;;;;2.67;2.67;;;;;18.26;89.02;99101.44;5083637;28;45254;-80
2023/09/21 06:10:11;;;;;;;;;4.00;4.00;;;;;18.27;89.26;99105.81;5086267;27;46742;-81
2023/09/21 06:12:36;;;;;;;;;5.00;3.00;;;;;18.44;89.39;99124.59;5087005;28;45598;-83
2023/09/21 06:15:05;;;;;;;;;2.67;2.67;;;;;18.43;89.47;99117.53;5106295;27;46071;-82
2023/09/21 06:17:31;;;;;;;;;4.00;3.00;;;;;18.44;88.58;99117.38;5081278;27;45686;-87
2023/09/21 06:19:57;;;;;;;;;3.33;2.00;;;;;18.49;87.89;99123.09;5069986;27;60222;-83
2023/09/21 06:22:23;;;;;;;;;2.67;2.67;;;;;18.46;87.16;99123.41;5075153;28;45336;-83
2023/09/21 06:24:48;;;;;;;;;4.33;3.00;;;;;18.45;87.01;99123.59;5079386;28;45368;-82
2023/09/21 06:27:15;;;;;;;;;3.00;2.67;;;;;18.52;86.88;99129.97;5080128;28;45621;-83
2023/09/21 06:29:41;;;;;;;;;4.00;3.00;;;;;18.33;86.87;99098.03;5079464;27;46104;-82
2023/09/21 06:32:07;;;;;;;;;3.00;3.00;;;;;18.52;86.48;99119.22;5078945;27;45288;-81
2023/09/21 06:34:36;;;;;;;;;3.67;3.00;;;;;18.54;86.74;99134.19;5061972;28;45285;-81
2023/09/21 06:37:03;;;;;;;;;3.00;3.00;;;;;18.55;86.86;99132.31;5069970;28;45497;-82
2023/09/21 06:39:28;;;;;;;;;3.00;3.00;;;;;18.55;86.51;99132.31;5087258;28;45494;-81
2023/09/21 06:41:54;;;;;;;;;2.00;2.00;;;;;18.57;86.95;99136.50;5098936;27;45724;-80
2023/09/21 06:44:19;;;;;;;;;3.33;3.33;;;;;18.45;86.92;99113.66;5103416;27;44780;-80
2023/09/21 06:46:45;;;;;;;;;3.00;3.00;;;;;18.61;87.27;99138.84;5081114;27;45338;-80
2023/09/21 06:49:11;;;;;;;;;2.33;2.33;;;;;18.58;87.50;99130.13;5066153;28;46104;-82
2023/09/21 06:51:36;;;;;;;;;5.33;3.67;;;;;18.54;87.40;99144.09;5067944;28;45235;-81
2023/09/21 06:54:03;;;;;;;;;2.00;2.00;;;;;18.49;88.61;99149.16;5071750;28;45246;-80
2023/09/21 06:56:29;;;;;;;;;2.33;2.33;;;;;18.44;88.86;99159.59;5081874;27;45568;-82
2023/09/21 06:58:56;;;;;;;;;6.67;4.00;;;;;18.34;89.16;99145.47;5063515;28;45836;-81
2023/09/21 07:01:22;;;;;;;;;3.00;3.00;;;;;18.41;88.83;99154.56;5060708;28;45468;-81
2023/09/21 07:03:48;;;;;;;;;3.00;3.00;;;;;18.37;89.99;99150.53;5066621;28;45424;-80
2023/09/21 07:06:15;;;;;;;;;4.00;4.00;;;;;18.37;90.37;99153.22;5083632;27;45325;-83
2023/09/21 07:08:40;;;;;;;;;3.00;2.67;;;;;18.17;89.79;99120.44;5072890;27;46400;-82
2023/09/21 07:11:05;;;;;;;;;4.33;4.33;;;;;18.15;90.89;99117.94;5075520;27;45635;-81
2023/09/21 07:13:32;;;;;;;;;4.00;2.67;;;;;18.21;91.61;99129.84;5076101;28;45384;-80
2023/09/21 07:15:58;;;;;;;;;4.00;4.00;;;;;18.26;91.53;99139.13;5048426;28;45902;-88
2023/09/21 07:18:25;;;;;;;;;4.00;4.00;;;;;18.32;90.86;99134.88;5063677;28;45587;-87
2023/09/21 07:20:53;;;;;;;;;3.00;1.00;;;;;18.05;92.04;99098.44;5081080;27;45445;-81
2023/09/21 07:23:18;;;;;;;;;7.33;4.67;;;;;18.18;92.00;99128.34;5082045;28;45352;-87
2023/09/21 07:25:43;;;;;;;;;5.33;3.00;;;;;18.10;92.15;99119.44;5085329;28;45472;-86
2023/09/21 07:28:09;;;;;;;;;4.33;4.00;;;;;18.02;93.57;99119.47;5085888;28;45194;-89
2023/09/21 07:30:35;;;;;;;;;4.00;4.00;;;;;18.04;93.66;99126.34;5084203;27;45365;-83
2023/09/21 07:33:01;;;;;;;;;4.00;3.00;;;;;17.84;94.70;99093.59;5084983;27;45372;-83
2023/09/21 07:35:26;;;;;;;;;3.67;3.67;;;;;18.07;94.36;99123.31;5083243;27;45432;-83
2023/09/21 07:37:52;;;;;;;;;4.33;4.00;;;;;17.91;94.92;99104.50;5076020;27;46120;-82
2023/09/21 07:40:18;;;;;;;;;4.00;4.00;;;;;18.00;94.56;99119.63;5081433;27;45310;-89
2023/09/21 07:42:45;;;;;;;;;3.00;2.33;;;;;17.97;93.99;99101.16;5075509;28;45271;-84
2023/09/21 07:45:11;;;;;;;;;4.00;4.00;;;;;17.86;93.80;99086.19;5061699;28;45543;-81
2023/09/21 07:47:40;;;;;;;;;4.00;4.00;;;;;17.94;94.09;99094.22;5074054;28;46340;-85
2023/09/21 07:50:06;;;;;;;;;4.00;4.00;;;;;17.92;94.00;99095.41;5078682;27;45393;-82
2023/09/21 07:52:36;;;;;;;;;4.00;4.00;;;;;18.01;94.72;99101.66;5079770;27;45356;-87
2023/09/21 07:55:05;;;;;;;;;3.67;3.67;;;;;17.84;94.41;99066.69;5067806;27;45427;-85
2023/09/21 07:57:40;;;;;;;;;2.33;2.00;;;;;17.86;94.22;99074.59;5061077;28;45278;-90
2023/09/21 08:00:09;;;;;;;;;4.00;3.00;;;;;17.91;93.89;99091.88;5062280;28;45333;-84
2023/09/21 08:02:35;;;;;;;;;3.00;3.00;;;;;17.91;94.83;99094.59;5074160;28;45333;-87
2023/09/21 08:05:02;;;;;;;;;6.00;4.00;;;;;17.83;94.73;99088.34;5087878;27;45468;-85
2023/09/21 08:07:28;;;;;;;;;3.33;3.33;;;;;17.75;95.15;99067.72;5071001;28;46172;-88
2023/09/21 08:09:56;;;;;;;;;4.00;4.00;;;;;17.79;94.65;99076.25;5071622;28;45375;-88
2023/09/21 08:12:24;;;;;;;;;7.33;3.00;;;;;17.91;94.73;99093.75;5070471;28;44726;-84
2023/09/21 08:14:50;;;;;;;;;4.00;4.00;;;;;17.86;94.74;99077.28;5086771;28;45345;-85
2023/09/21 08:17:16;;;;;;;;;3.00;3.00;;;;;17.80;94.61;99069.88;5091263;27;45950;-91
2023/09/21 08:19:41;;;;;;;;;7.33;3.00;;;;;17.83;94.13;99069.53;5083523;27;45435;-84
2023/09/21 08:22:07;;;;;;;;;3.00;3.00;;;;;17.73;94.32;99063.50;5063990;28;45862;-82
2023/09/21 08:24:35;;;;;;;;;2.67;2.00;;;;;17.86;94.31;99093.41;5059164;28;45311;-83
2023/09/21 08:27:02;;;;;;;;;3.00;3.00;;;;;17.84;94.63;99087.34;5056579;28;45950;-80
2023/09/21 08:29:27;;;;;;;;;5.00;4.00;;;;;17.86;94.33;99096.94;5056517;28;45407;-81
2023/09/21 08:31:53;;;;;;;;;5.00;4.00;;;;;17.85;94.45;99079.13;5054383;28;45618;-81
2023/09/21 08:34:19;;;;;;;;;4.00;4.00;;;;;17.61;94.43;99042.31;5063389;28;45599;-80
2023/09/21 08:36:44;;;;;;;;;3.67;3.00;;;;;17.76;94.20;99063.16;5069966;27;45393;-84
2023/09/21 08:39:11;;;;;;;;;2.33;2.33;;;;;17.85;93.73;99072.91;5054790;28;46064;-84
2023/09/21 08:41:46;;;;;;;;;3.00;3.00;;;;;17.81;94.12;99087.69;5070726;28;45498;-82
2023/09/21 08:44:11;;;;;;;;;4.00;2.67;;;;;17.62;94.29;99057.44;5074902;27;45430;-81
2023/09/21 08:46:38;;;;;;;;;6.67;4.00;;;;;17.79;94.30;99085.16;5076650;27;45694;-82
2023/09/21 08:49:06;;;;;;;;;3.00;3.00;;;;;17.69;94.13;99079.97;5074650;28;45475;-82
2023/09/21 08:51:32;;;;;;;;;3.00;3.00;;;;;17.59;94.10;99056.94;5074275;28;45492;-82
2023/09/21 08:53:59;;;;;;;;;3.00;3.00;;;;;17.74;94.34;99081.31;5077209;28;45320;-82
2023/09/21 08:56:27;;;;;;;;;3.00;3.00;;;;;17.66;93.84;99069.50;5076558;27;45485;-82
2023/09/21 08:58:58;;;;;;;;;5.00;5.00;;;;;17.76;93.55;99084.69;5080860;27;45381;-82
2023/09/21 09:01:24;;;;;;;;;4.33;4.33;;;;;17.45;93.60;99031.56;5080763;28;45542;-82
2023/09/21 09:03:51;;;;;;;;;8.33;5.00;;;;;17.80;93.35;99072.56;5070332;28;45437;-81
2023/09/21 09:06:17;;;;;;;;;4.00;4.00;;;;;17.74;92.83;99057.13;5075162;28;45457;-80
2023/09/21 09:08:46;;;;;;;;;4.00;3.00;;;;;17.77;93.17;99051.41;5066872;28;45454;-81
2023/09/21 09:11:31;;;;;;;;;5.33;5.33;;;;;17.78;92.35;99066.53;5060943;28;45405;-81
2023/09/21 09:13:57;;;;;;;;;4.00;4.00;;;;;17.81;92.28;99067.00;5062129;27;45389;-81
2023/09/21 09:16:29;;;;;;;;;3.00;2.00;;;;;17.88;92.39;99059.13;5070323;28;63085;-83
2023/09/21 09:18:58;;;;;;;;;5.00;4.00;;;;;17.74;92.85;99022.16;5079474;27;45384;-82
2023/09/21 09:21:23;;;;;;;;;7.00;5.00;;;;;17.89;92.22;99041.97;5077156;28;45676;-81
2023/09/21 09:23:49;;;;;;;;;6.00;5.00;;;;;17.81;91.92;99007.84;5066890;28;45666;-80
2023/09/21 09:26:16;;;;;;;;;6.33;5.00;;;;;17.92;91.66;99029.03;5077827;28;47431;-82
2023/09/21 09:28:41;;;;;;;;;7.67;5.67;;;;;17.92;92.34;99020.94;5079670;27;45988;-82
2023/09/21 09:31:10;;;;;;;;;4.00;4.00;;;;;18.00;91.58;99033.56;5059801;28;45732;-82
2023/09/21 09:33:36;;;;;;;;;5.00;5.00;;;;;17.93;92.09;99032.53;5060578;28;45820;-83
2023/09/21 09:36:02;;;;;;;;;5.00;3.33;;;;;17.96;92.05;99033.03;5058907;28;45428;-82
2023/09/21 09:38:28;;;;;;;;;3.33;3.33;;;;;17.95;91.77;99025.13;5071695;28;45425;-83
2023/09/21 09:40:56;;;;;;;;;3.00;3.00;;;;;17.88;92.36;99029.53;5058988;28;45604;-82
2023/09/21 09:43:28;;;;;;;;;7.00;7.00;;;;;17.77;93.03;99005.69;5056530;28;45511;-81
2023/09/21 09:45:55;;;;;;;;;7.00;7.00;;;;;17.95;92.45;99030.53;5056634;28;45506;-83
2023/09/21 09:48:23;;;;;;;;;5.33;4.00;;;;;17.93;92.84;99019.94;5071813;28;45468;-82
2023/09/21 09:50:55;;;;;;;;;8.00;5.00;;;;;18.09;92.93;99048.66;5080524;28;44771;-81
2023/09/21 09:53:23;;;;;;;;;4.33;4.00;;;;;18.14;94.52;99067.81;5077764;28;45935;-79
2023/09/21 09:55:53;;;;;;;;;0.00;0.00;;;;;17.62;90.37;99009.03;5076332;28;47567;-81
2023/09/21 09:58:20;;;;;;;;;2.00;0.33;;;;;17.64;89.43;99041.97;5078631;28;45818;-82
2023/09/21 10:00:45;;;;;;;;;5.00;2.00;;;;;17.53;85.96;99061.13;5075414;27;45484;-85
2023/09/21 10:03:12;;;;;;;;;4.33;1.67;;;;;17.43;87.63;99055.06;5067241;27;45530;-82
2023/09/21 10:05:39;;;;;;;;;2.33;2.33;;;;;17.42;87.38;99066.81;5059937;28;46223;-82
2023/09/21 10:08:07;;;;;;;;;0.33;0.33;;;;;17.41;89.01;99073.19;5066337;28;45455;-83
2023/09/21 10:10:49;;;;;;;;;1.33;0.00;;;;;17.56;86.99;99052.69;5071339;27;45389;-87
2023/09/21 10:13:16;;;;;;;;;1.00;1.00;;;;;17.62;86.85;99029.69;5077492;28;45528;-84
2023/09/21 10:15:47;;;;;;;;;0.00;0.00;;;;;17.87;85.49;99060.97;5078978;28;46116;-80
2023/09/21 10:18:27;;;;;;;;;4.00;4.00;;;;;18.05;86.06;99060.78;5078466;27;45556;-81
2023/09/21 10:20:56;;;;;;;;;6.00;5.33;;;;;18.23;83.86;99053.34;5077165;28;45469;-79
2023/09/21 10:23:27;;;;;;;;;1.33;1.33;;;;;18.26;84.30;99044.94;5077390;27;45711;-81
2023/09/21 10:25:55;;;;;;;;;1.00;1.00;;;;;18.29;84.64;99022.22;5061175;28;47511;-80
2023/09/21 10:28:27;;;;;;;;;0.67;0.67;;;;;18.60;82.51;99056.41;5079482;27;45434;-80
2023/09/21 10:31:09;;;;;;;;;2.00;1.00;;;;;18.64;81.70;99047.00;5084112;28;45411;-82
2023/09/21 10:33:51;;;;;;;;;2.33;1.33;;;;;18.77;80.89;99066.97;5096152;27;45530;-80
2023/09/21 10:36:23;;;;;;;;;1.33;1.00;;;;;18.73;79.64;99038.69;5068579;27;45500;-84
2023/09/21 10:39:10;;;;;;;;;2.00;1.00;;;;;18.93;78.11;99059.81;5059009;28;45716;-83
2023/09/21 10:41:39;;;;;;;;;1.00;1.00;;;;;18.83;76.45;99046.56;5060716;28;45463;-80
2023/09/21 10:44:06;;;;;;;;;1.67;1.00;;;;;19.06;74.53;99079.78;5055739;28;45395;-81
2023/09/21 10:46:34;;;;;;;;;3.33;2.00;;;;;19.08;74.80;99082.31;5069269;28;46535;-82
2023/09/21 10:49:06;;;;;;;;;2.00;2.00;;;;;19.09;74.41;99084.81;5078031;28;45633;-81
2023/09/21 10:51:39;;;;;;;;;3.00;3.00;;;;;19.07;74.18;99086.84;5079631;27;45390;-82
2023/09/21 10:54:06;;;;;;;;;1.00;1.00;;;;;18.93;74.16;99082.22;5081036;27;45432;-82
2023/09/21 10:56:33;;;;;;;;;5.00;3.00;;;;;18.98;73.92;99097.84;5077551;27;46318;-85
2023/09/21 10:58:59;;;;;;;;;2.00;2.00;;;;;18.79;73.49;99086.50;5080492;27;45656;-83
2023/09/21 11:01:24;;;;;;;;;3.67;2.00;;;;;18.76;73.25;99100.31;5067270;27;45614;-83
2023/09/21 11:03:52;;;;;;;;;1.67;1.67;;;;;18.67;73.82;99093.28;5059887;28;45671;-82
2023/09/21 11:06:18;;;;;;;;;3.67;3.67;;;;;18.67;73.43;99090.59;5072646;28;46126;-81
2023/09/21 11:08:46;;;;;;;;;1.67;1.67;;;;;18.47;73.75;99073.09;5071778;27;45480;-84
2023/09/21 11:11:12;;;;;;;;;1.00;1.00;;;;;18.52;73.44;99070.75;5057148;28;45842;-82
2023/09/21 11:13:42;;;;;;;;;1.00;1.00;;;;;18.48;73.67;99070.22;5067977;28;45523;-82
2023/09/21 11:16:14;;;;;;;;;1.00;1.00;;;;;18.39;74.11;99049.75;5073461;28;47464;-84
2023/09/21 11:18:40;;;;;;;;;3.67;3.00;;;;;18.37;73.92;99045.56;5075195;28;45404;-83
2023/09/21 11:21:08;;;;;;;;;3.00;1.00;;;;;18.30;74.17;99029.25;5068459;27;45521;-82
2023/09/21 11:23:35;;;;;;;;;2.00;2.00;;;;;18.17;73.82;99028.97;5057695;28;45563;-82
2023/09/21 11:26:00;;;;;;;;;2.67;1.67;;;;;18.16;74.14;99038.91;5060063;28;45829;-82
2023/09/21 11:28:28;;;;;;;;;3.33;3.00;;;;;17.99;74.71;99015.75;5069088;28;45451;-81
2023/09/21 11:30:56;;;;;;;;;3.00;3.00;;;;;18.16;73.81;99049.66;5070585;28;45525;-81
2023/09/21 11:33:21;;;;;;;;;2.00;2.00;;;;;18.00;72.88;99038.94;5056985;28;45527;-82
2023/09/21 11:35:47;;;;;;;;;4.00;2.00;;;;;17.88;73.51;99018.78;5076621;28;45995;-83